createdAt,value
2018-03-27T00:02:23.896Z,30.97
2018-03-27T00:04:52.108Z,31.60
2018-03-27T00:07:21.189Z,30.20
2018-03-27T00:09:49.390Z,31.90
2018-03-27T00:12:18.391Z,30.97
2018-03-27T00:14:46.673Z,32.37
2018-03-27T00:17:14.890Z,33.03
2018-03-27T00:19:43.084Z,31.50
2018-03-27T00:22:11.312Z,31.93
2018-03-27T00:24:42.425Z,31.30
2018-03-27T00:27:10.976Z,34.10
2018-03-27T00:29:51.330Z,35.43
2018-03-27T00:32:31.224Z,32.73
2018-03-27T00:35:11.375Z,30.63
2018-03-27T00:37:52.036Z,32.43
2018-03-27T00:40:32.104Z,33.33
2018-03-27T00:43:01.136Z,32.47
2018-03-27T00:45:29.338Z,34.00
2018-03-27T00:47:57.577Z,33.70
2018-03-27T00:50:25.802Z,35.13
2018-03-27T00:52:54.057Z,36.73
2018-03-27T00:55:22.744Z,34.03
2018-03-27T00:57:50.924Z,34.73
2018-03-27T01:00:19.144Z,33.93
2018-03-27T01:02:47.417Z,35.87
2018-03-27T01:05:15.633Z,34.73
2018-03-27T01:07:43.821Z,32.83
2018-03-27T01:10:12.076Z,33.07
2018-03-27T01:12:40.422Z,33.67
2018-03-27T01:15:08.655Z,33.20
2018-03-27T01:17:36.836Z,31.93
2018-03-27T01:20:05.805Z,33.90
2018-03-27T01:22:34.050Z,34.17
2018-03-27T01:25:02.285Z,37.30
2018-03-27T01:27:31.257Z,33.80
2018-03-27T01:29:59.472Z,35.00
2018-03-27T01:32:27.697Z,35.47
2018-03-27T01:34:55.902Z,32.97
2018-03-27T01:37:24.876Z,33.23
2018-03-27T01:39:53.136Z,34.90
2018-03-27T01:42:21.412Z,34.13
2018-03-27T01:44:49.640Z,33.33
2018-03-27T01:47:17.860Z,34.53
2018-03-27T01:49:46.110Z,35.70
2018-03-27T01:52:14.318Z,32.93
2018-03-27T01:54:43.875Z,34.07
2018-03-27T01:57:12.118Z,34.03
2018-03-27T01:59:40.369Z,33.67
2018-03-27T02:02:08.598Z,33.80
2018-03-27T02:04:36.804Z,34.73
2018-03-27T02:07:04.997Z,34.47
2018-03-27T02:09:33.239Z,33.67
2018-03-27T02:12:07.113Z,33.77
2018-03-27T02:14:41.904Z,32.53
2018-03-27T02:17:15.771Z,30.60
2018-03-27T02:19:49.697Z,32.87
2018-03-27T02:22:17.970Z,34.00
2018-03-27T02:24:46.207Z,31.87
2018-03-27T02:27:15.244Z,33.70
2018-03-27T02:29:43.540Z,34.90
2018-03-27T02:32:11.746Z,33.03
2018-03-27T02:34:40.070Z,34.63
2018-03-27T02:37:08.254Z,33.47
2018-03-27T02:39:36.453Z,33.43
2018-03-27T02:42:04.730Z,33.17
2018-03-27T02:44:32.925Z,32.40
2018-03-27T02:47:01.242Z,32.97
2018-03-27T02:49:29.633Z,33.13
2018-03-27T02:51:57.826Z,31.97
2018-03-27T02:54:26.800Z,31.23
2018-03-27T02:56:56.332Z,33.60
2018-03-27T02:59:24.692Z,32.90
2018-03-27T03:01:53.629Z,31.97
2018-03-27T03:04:22.778Z,35.57
2018-03-27T03:06:50.981Z,33.50
2018-03-27T03:09:19.175Z,34.53
2018-03-27T03:11:48.165Z,35.10
2018-03-27T03:14:16.404Z,33.83
2018-03-27T03:16:44.596Z,32.87
2018-03-27T03:19:13.772Z,33.73
2018-03-27T03:21:42.048Z,32.37
2018-03-27T03:24:11.054Z,31.83
2018-03-27T03:26:39.261Z,35.20
2018-03-27T03:29:08.258Z,34.57
2018-03-27T03:31:37.214Z,35.90
2018-03-27T03:34:05.459Z,34.37
2018-03-27T03:36:33.731Z,34.17
2018-03-27T03:39:02.005Z,33.33
2018-03-27T03:41:30.292Z,34.20
2018-03-27T03:43:58.489Z,36.17
2018-03-27T03:46:26.729Z,31.93
2018-03-27T03:48:55.106Z,34.50
2018-03-27T03:51:23.322Z,33.67
2018-03-27T03:53:51.592Z,33.30
2018-03-27T03:56:20.075Z,31.50
2018-03-27T03:58:48.484Z,35.00
2018-03-27T04:01:16.800Z,37.40
2018-03-27T04:03:45.234Z,36.13
2018-03-27T04:06:13.433Z,34.10
2018-03-27T04:08:42.443Z,35.20
2018-03-27T04:11:10.717Z,35.00
2018-03-27T04:13:38.931Z,33.40
2018-03-27T04:16:08.224Z,35.67
2018-03-27T04:18:36.455Z,36.97
2018-03-27T04:21:05.419Z,34.17
2018-03-27T04:23:33.637Z,37.60
2018-03-27T04:26:01.956Z,35.77
2018-03-27T04:28:30.140Z,35.67
2018-03-27T04:30:58.354Z,35.63
2018-03-27T04:33:27.417Z,33.73
2018-03-27T04:35:56.038Z,32.20
2018-03-27T04:38:25.029Z,35.10
2018-03-27T04:40:54.111Z,33.93
2018-03-27T04:43:22.308Z,39.90
2018-03-27T04:45:50.512Z,41.00
2018-03-27T04:48:18.792Z,40.80
2018-03-27T04:50:47.080Z,36.97
2018-03-27T04:53:15.345Z,34.67
2018-03-27T04:55:43.592Z,35.87
2018-03-27T04:58:11.847Z,34.30
2018-03-27T05:00:40.954Z,32.40
2018-03-27T05:03:09.972Z,32.13
2018-03-27T05:05:38.224Z,33.93
2018-03-27T05:08:06.425Z,35.23
2018-03-27T05:10:34.693Z,34.00
2018-03-27T05:13:03.039Z,35.50
2018-03-27T05:15:32.026Z,35.67
2018-03-27T05:18:00.266Z,32.73
2018-03-27T05:20:28.481Z,32.03
2018-03-27T05:22:57.561Z,32.47
2018-03-27T05:25:25.765Z,35.53
2018-03-27T05:27:54.007Z,34.00
2018-03-27T05:30:22.302Z,34.40
2018-03-27T05:32:51.373Z,34.03
2018-03-27T05:35:19.558Z,31.93
2018-03-27T05:37:47.812Z,33.67
2018-03-27T05:40:16.069Z,34.40
2018-03-27T05:42:44.286Z,32.80
2018-03-27T05:45:12.703Z,34.93
2018-03-27T05:47:40.943Z,30.83
2018-03-27T05:50:09.935Z,32.13
2018-03-27T05:52:38.145Z,33.60
2018-03-27T05:55:07.193Z,31.23
2018-03-27T05:57:35.372Z,33.40
2018-03-27T06:00:03.612Z,33.03
2018-03-27T06:05:09.549Z,32.30
2018-03-27T06:07:37.749Z,32.33
2018-03-27T06:10:06.717Z,33.73
2018-03-27T06:12:35.825Z,33.20
2018-03-27T06:15:04.081Z,34.13
2018-03-27T06:17:33.126Z,35.57
2018-03-27T06:20:01.379Z,32.37
2018-03-27T06:22:29.744Z,36.07
2018-03-27T06:24:58.713Z,35.27
2018-03-27T06:27:27.024Z,35.27
2018-03-27T06:29:55.197Z,34.73
2018-03-27T06:32:23.441Z,38.50
2018-03-27T06:34:51.645Z,39.60
2018-03-27T06:37:19.950Z,37.17
2018-03-27T06:39:48.446Z,39.17
2018-03-27T06:42:16.689Z,40.93
2018-03-27T06:44:45.097Z,41.67
2018-03-27T06:47:14.251Z,44.00
2018-03-27T06:49:42.495Z,41.53
2018-03-27T06:52:10.860Z,45.30
2018-03-27T06:54:39.154Z,45.73
2018-03-27T06:57:07.349Z,42.03
2018-03-27T06:59:36.369Z,46.20
2018-03-27T07:02:04.596Z,49.10
2018-03-27T07:04:32.965Z,48.60
2018-03-27T07:07:01.218Z,46.97
2018-03-27T07:09:29.452Z,44.10
2018-03-27T07:11:57.649Z,45.53
2018-03-27T07:14:26.649Z,48.23
2018-03-27T07:16:55.582Z,44.13
2018-03-27T07:19:23.804Z,42.30
2018-03-27T07:21:52.160Z,41.37
2018-03-27T07:24:21.203Z,43.07
2018-03-27T07:26:49.460Z,41.53
2018-03-27T07:29:17.655Z,44.30
2018-03-27T07:31:45.869Z,41.30
2018-03-27T07:34:14.141Z,44.07
2018-03-27T07:36:42.492Z,42.40
2018-03-27T07:39:10.701Z,44.10
2018-03-27T07:41:38.975Z,41.83
2018-03-27T07:44:07.233Z,44.07
2018-03-27T07:46:35.513Z,43.33
2018-03-27T07:49:03.714Z,41.90
2018-03-27T07:51:31.941Z,41.93
2018-03-27T07:54:00.229Z,45.10
2018-03-27T07:56:28.423Z,41.07
2018-03-27T07:58:56.649Z,43.43
2018-03-27T08:01:24.843Z,41.77
2018-03-27T08:03:53.048Z,42.77
2018-03-27T08:06:21.476Z,43.60
2018-03-27T08:08:49.794Z,44.23
2018-03-27T08:11:18.085Z,44.87
2018-03-27T08:13:46.301Z,42.00
2018-03-27T08:16:14.496Z,42.53
2018-03-27T08:18:42.705Z,40.73
2018-03-27T08:21:10.931Z,41.13
2018-03-27T08:23:39.133Z,42.10
2018-03-27T08:26:07.333Z,41.97
2018-03-27T08:28:35.621Z,43.03
2018-03-27T08:31:03.832Z,44.30
2018-03-27T08:33:32.034Z,45.53
2018-03-27T08:36:01.041Z,42.57
2018-03-27T08:38:29.505Z,41.73
2018-03-27T08:40:57.762Z,43.57
2018-03-27T08:43:26.079Z,39.53
2018-03-27T08:45:54.404Z,42.00
2018-03-27T08:48:22.584Z,41.07
2018-03-27T08:50:50.856Z,41.47
2018-03-27T08:53:19.072Z,40.33
2018-03-27T08:55:47.352Z,41.10
2018-03-27T08:58:15.586Z,40.50
2018-03-27T09:00:43.915Z,38.37
2018-03-27T09:03:12.076Z,36.13
2018-03-27T09:05:41.569Z,37.60
2018-03-27T09:08:10.023Z,38.67
2018-03-27T09:10:38.387Z,38.17
2018-03-27T09:13:07.483Z,33.93
2018-03-27T09:15:36.451Z,26.67
2018-03-27T09:18:04.677Z,25.20
2018-03-27T09:20:34.189Z,28.50
2018-03-27T09:23:02.432Z,30.50
2018-03-27T09:25:31.426Z,30.03
2018-03-27T09:28:01.598Z,26.47
2018-03-27T09:30:29.828Z,25.37
2018-03-27T09:32:59.330Z,24.40
2018-03-27T09:35:28.404Z,24.60
2018-03-27T09:37:56.621Z,23.63
2018-03-27T09:40:24.826Z,23.73
2018-03-27T09:42:53.057Z,21.73
2018-03-27T09:45:21.339Z,22.70
2018-03-27T09:47:49.537Z,22.37
2018-03-27T09:50:17.846Z,25.87
2018-03-27T09:52:46.057Z,23.77
2018-03-27T09:55:14.260Z,27.00
2018-03-27T09:57:42.681Z,26.00
2018-03-27T10:00:10.869Z,25.93
2018-03-27T10:02:39.121Z,25.43
2018-03-27T10:05:07.380Z,27.70
2018-03-27T10:07:35.616Z,27.43
2018-03-27T10:10:04.638Z,26.63
2018-03-27T10:12:32.876Z,27.37
2018-03-27T10:15:01.873Z,25.30
2018-03-27T10:17:30.844Z,26.77
2018-03-27T10:19:59.208Z,25.87
2018-03-27T10:22:27.456Z,26.53
2018-03-27T10:24:56.296Z,26.53
2018-03-27T10:27:25.292Z,26.43
2018-03-27T10:29:54.447Z,26.10
2018-03-27T10:32:22.697Z,24.73
2018-03-27T10:34:51.038Z,24.43
2018-03-27T10:37:20.017Z,24.47
2018-03-27T10:39:48.255Z,23.83
2018-03-27T10:42:16.521Z,24.50
2018-03-27T10:44:44.747Z,21.93
2018-03-27T10:47:12.983Z,22.10
2018-03-27T10:49:41.232Z,20.97
2018-03-27T10:52:09.448Z,19.50
2018-03-27T10:54:37.653Z,18.73
2018-03-27T10:57:06.686Z,20.20
2018-03-27T10:59:34.935Z,19.77
2018-03-27T11:02:03.936Z,21.60
2018-03-27T11:04:32.349Z,20.70
2018-03-27T11:07:00.577Z,21.07
2018-03-27T11:09:29.581Z,21.03
2018-03-27T11:11:57.962Z,22.43
2018-03-27T11:14:27.007Z,22.17
2018-03-27T11:16:55.254Z,23.37
2018-03-27T11:19:24.890Z,22.03
2018-03-27T11:21:53.133Z,21.23
2018-03-27T11:24:21.383Z,24.33
2018-03-27T11:26:50.467Z,22.83
2018-03-27T11:29:18.834Z,21.17
2018-03-27T11:31:47.336Z,23.23
2018-03-27T11:34:16.472Z,23.20
2018-03-27T11:36:44.734Z,17.73
2018-03-27T11:39:13.056Z,19.57
2018-03-27T11:41:41.389Z,17.90
2018-03-27T11:44:09.655Z,16.23
2018-03-27T11:46:38.912Z,15.43
2018-03-27T11:49:07.196Z,14.10
2018-03-27T11:51:35.404Z,14.27
2018-03-27T11:54:04.382Z,14.50
2018-03-27T11:56:32.648Z,13.13
2018-03-27T11:59:00.917Z,12.67
2018-03-27T12:01:29.907Z,10.40
2018-03-27T12:03:58.184Z,13.83
2018-03-27T12:06:26.395Z,12.77
2018-03-27T12:08:55.474Z,12.93
2018-03-27T12:11:23.918Z,12.93
2018-03-27T12:13:52.180Z,11.20
2018-03-27T12:16:20.393Z,12.80
2018-03-27T12:18:48.697Z,13.00
2018-03-27T12:21:17.025Z,12.53
2018-03-27T12:23:45.256Z,12.30
2018-03-27T12:26:13.506Z,13.10
2018-03-27T12:28:41.702Z,13.70
2018-03-27T12:31:09.965Z,14.00
2018-03-27T12:33:38.199Z,15.17
2018-03-27T12:36:06.499Z,15.57
2018-03-27T12:38:34.686Z,14.80
2018-03-27T12:41:02.910Z,15.10
2018-03-27T12:43:31.885Z,15.83
2018-03-27T12:46:01.028Z,16.40
2018-03-27T12:48:29.316Z,16.23
2018-03-27T12:50:57.568Z,16.87
2018-03-27T12:53:25.877Z,15.03
2018-03-27T12:55:54.136Z,15.33
2018-03-27T12:58:22.336Z,14.70
2018-03-27T13:00:50.597Z,13.50
2018-03-27T13:03:18.804Z,13.30
2018-03-27T13:05:47.272Z,13.43
2018-03-27T13:08:15.510Z,13.10
2018-03-27T13:10:43.728Z,11.97
2018-03-27T13:13:11.990Z,12.10
2018-03-27T13:15:40.242Z,12.53
2018-03-27T13:18:08.544Z,12.97
2018-03-27T13:20:36.830Z,13.07
2018-03-27T13:23:04.974Z,13.23
2018-03-27T13:25:33.236Z,13.63
2018-03-27T13:28:01.505Z,12.27
2018-03-27T13:30:29.749Z,12.93
2018-03-27T13:32:58.171Z,13.23
2018-03-27T13:35:26.457Z,13.77
2018-03-27T13:37:54.723Z,12.77
2018-03-27T13:40:23.036Z,12.93
2018-03-27T13:42:51.264Z,14.37
2018-03-27T13:45:19.462Z,14.93
2018-03-27T13:47:47.703Z,15.13
2018-03-27T13:50:16.691Z,14.63
2018-03-27T13:52:45.653Z,16.17
2018-03-27T13:55:13.882Z,15.03
2018-03-27T13:57:42.080Z,15.87
2018-03-27T14:00:10.310Z,16.00
2018-03-27T14:02:39.355Z,17.43
2018-03-27T14:05:07.585Z,16.30
2018-03-27T14:07:36.617Z,15.43
2018-03-27T14:10:05.062Z,15.30
2018-03-27T14:12:33.403Z,15.70
2018-03-27T14:15:01.985Z,16.10
2018-03-27T14:17:30.185Z,17.70
2018-03-27T14:19:59.235Z,19.57
2018-03-27T14:22:27.402Z,19.43
2018-03-27T14:24:55.684Z,18.17
2018-03-27T14:27:24.080Z,17.63
2018-03-27T14:29:52.297Z,17.43
2018-03-27T14:32:20.511Z,18.37
2018-03-27T14:34:48.725Z,16.00
2018-03-27T14:37:16.907Z,15.13
2018-03-27T14:39:46.105Z,15.40
2018-03-27T14:42:14.350Z,15.73
2018-03-27T14:44:42.609Z,15.93
2018-03-27T14:47:10.881Z,14.60
2018-03-27T14:49:39.098Z,14.07
2018-03-27T14:52:07.381Z,14.13
2018-03-27T14:54:36.528Z,15.50
2018-03-27T14:57:04.892Z,14.83
2018-03-27T14:59:33.902Z,14.83
2018-03-27T15:02:02.218Z,17.57
2018-03-27T15:04:30.508Z,15.30
2018-03-27T15:06:59.510Z,17.17
2018-03-27T15:09:28.947Z,15.47
2018-03-27T15:11:57.199Z,16.53
2018-03-27T15:14:26.196Z,17.37
2018-03-27T15:16:54.452Z,17.17
2018-03-27T15:19:23.431Z,16.43
2018-03-27T15:21:51.657Z,15.93
2018-03-27T15:24:19.905Z,16.47
2018-03-27T15:26:48.113Z,15.77
2018-03-27T15:29:16.323Z,16.40
2018-03-27T15:31:44.626Z,16.07
2018-03-27T15:34:13.596Z,17.50
2018-03-27T15:36:41.806Z,16.80
2018-03-27T15:39:10.044Z,15.90
2018-03-27T15:41:38.279Z,17.33
2018-03-27T15:44:06.500Z,17.77
2018-03-27T15:46:34.718Z,18.07
2018-03-27T15:49:02.920Z,18.73
2018-03-27T15:51:31.178Z,19.27
2018-03-27T15:53:59.431Z,18.97
2018-03-27T15:56:27.629Z,19.53
2018-03-27T15:58:55.828Z,19.50
2018-03-27T16:01:24.134Z,19.83
2018-03-27T16:03:53.137Z,18.40
2018-03-27T16:06:21.312Z,18.73
2018-03-27T16:08:50.381Z,18.43
2018-03-27T16:11:18.570Z,20.00
2018-03-27T16:13:46.777Z,19.23
2018-03-27T16:16:15.049Z,19.60
2018-03-27T16:18:43.255Z,19.00
2018-03-27T16:21:11.457Z,19.93
2018-03-27T16:23:40.679Z,21.03
2018-03-27T16:26:09.648Z,21.77
2018-03-27T16:28:37.853Z,20.70
2018-03-27T16:31:06.920Z,20.10
2018-03-27T16:33:35.117Z,20.60
2018-03-27T16:36:04.131Z,20.47
2018-03-27T16:38:32.357Z,19.63
2018-03-27T16:41:00.662Z,19.50
2018-03-27T16:43:29.625Z,21.23
2018-03-27T16:45:57.842Z,19.63
2018-03-27T16:48:26.937Z,19.97
2018-03-27T16:50:55.984Z,19.20
2018-03-27T16:53:24.291Z,19.40
2018-03-27T16:55:52.493Z,18.50
2018-03-27T16:58:20.708Z,19.73
2018-03-27T17:00:49.017Z,18.73
2018-03-27T17:03:17.227Z,19.90
2018-03-27T17:05:45.474Z,19.33
2018-03-27T17:08:14.527Z,21.40
2018-03-27T17:10:42.741Z,21.03
2018-03-27T17:13:10.925Z,21.43
2018-03-27T17:15:39.923Z,22.17
2018-03-27T17:18:09.129Z,21.97
2018-03-27T17:20:37.326Z,21.57
2018-03-27T17:23:05.828Z,20.80
2018-03-27T17:25:34.029Z,21.03
2018-03-27T17:28:02.225Z,19.53
2018-03-27T17:30:31.208Z,21.27
2018-03-27T17:33:00.213Z,21.87
2018-03-27T17:35:29.185Z,21.57
2018-03-27T17:37:57.592Z,21.50
2018-03-27T17:40:25.832Z,20.63
2018-03-27T17:42:54.127Z,21.70
2018-03-27T17:45:22.440Z,22.10
2018-03-27T17:47:50.662Z,22.87
2018-03-27T17:50:18.887Z,21.10
2018-03-27T17:52:47.906Z,23.70
2018-03-27T17:55:16.105Z,21.97
2018-03-27T17:57:44.318Z,22.40
2018-03-27T18:00:12.577Z,20.90
2018-03-27T18:02:41.547Z,23.03
2018-03-27T18:05:09.916Z,22.43
2018-03-27T18:07:38.528Z,21.87
2018-03-27T18:10:07.643Z,22.13
2018-03-27T18:12:36.224Z,24.17
2018-03-27T18:15:05.210Z,24.33
2018-03-27T18:17:34.180Z,22.97
2018-03-27T18:20:03.264Z,23.97
2018-03-27T18:22:31.732Z,23.73
2018-03-27T18:25:00.024Z,24.13
2018-03-27T18:27:28.214Z,23.80
2018-03-27T18:29:57.225Z,23.20
2018-03-27T18:32:26.492Z,25.23
2018-03-27T18:34:54.678Z,24.13
2018-03-27T18:37:22.936Z,24.93
2018-03-27T18:39:51.081Z,23.63
2018-03-27T18:42:19.312Z,23.83
2018-03-27T18:44:47.524Z,24.40
2018-03-27T18:47:15.729Z,25.00
2018-03-27T18:49:43.933Z,22.90
2018-03-27T18:52:12.213Z,23.80
2018-03-27T18:54:41.171Z,23.13
2018-03-27T18:57:09.760Z,23.80
2018-03-27T18:59:38.036Z,24.60
2018-03-27T19:02:06.226Z,24.97
2018-03-27T19:04:34.474Z,24.13
2018-03-27T19:07:02.703Z,24.33
2018-03-27T19:09:31.668Z,23.97
2018-03-27T19:11:59.954Z,24.60
2018-03-27T19:14:28.948Z,23.13
2018-03-27T19:16:57.163Z,22.63
2018-03-27T19:19:25.366Z,23.10
2018-03-27T19:21:53.621Z,23.87
2018-03-27T19:24:21.810Z,22.43
2018-03-27T19:26:49.998Z,26.40
2018-03-27T19:29:18.236Z,23.50
2018-03-27T19:31:46.436Z,22.47
2018-03-27T19:34:14.638Z,23.30
2018-03-27T19:36:42.905Z,23.30
2018-03-27T19:39:11.113Z,24.30
2018-03-27T19:41:40.073Z,24.33
2018-03-27T19:44:08.367Z,23.60
2018-03-27T19:46:36.670Z,24.10
2018-03-27T19:49:05.633Z,24.77
2018-03-27T19:51:33.864Z,25.30
2018-03-27T19:54:02.086Z,23.03
2018-03-27T19:56:30.331Z,24.10
2018-03-27T19:58:58.586Z,25.20
2018-03-27T20:01:26.773Z,25.00
2018-03-27T20:03:55.033Z,24.57
2018-03-27T20:06:23.323Z,24.93
2018-03-27T20:08:51.531Z,25.73
2018-03-27T20:11:19.819Z,26.30
2018-03-27T20:13:48.138Z,23.60
2018-03-27T20:16:16.339Z,25.43
2018-03-27T20:18:44.565Z,22.30
2018-03-27T20:21:13.629Z,24.77
2018-03-27T20:23:41.857Z,25.20
2018-03-27T20:26:10.234Z,25.53
2018-03-27T20:28:39.682Z,24.67
2018-03-27T20:31:07.883Z,24.10
2018-03-27T20:33:36.105Z,25.17
2018-03-27T20:36:04.323Z,23.90
2018-03-27T20:38:32.544Z,22.67
2018-03-27T20:41:00.767Z,24.07
2018-03-27T20:43:29.062Z,25.40
2018-03-27T20:45:58.101Z,24.50
2018-03-27T20:48:26.311Z,24.17
2018-03-27T20:50:54.533Z,25.27
2018-03-27T20:53:23.018Z,25.90
2018-03-27T20:55:51.260Z,23.77
2018-03-27T20:58:19.513Z,23.67
2018-03-27T21:00:47.713Z,24.87
2018-03-27T21:03:16.748Z,23.93
2018-03-27T21:05:46.237Z,23.30
2018-03-27T21:08:14.437Z,26.30
2018-03-27T21:10:42.645Z,24.87
2018-03-27T21:13:11.628Z,26.03
2018-03-27T21:15:39.821Z,24.33
2018-03-27T21:18:08.011Z,25.87
2018-03-27T21:20:37.005Z,26.33
2018-03-27T21:23:05.965Z,24.90
2018-03-27T21:25:34.160Z,24.10
2018-03-27T21:28:03.473Z,24.80
2018-03-27T21:30:32.644Z,23.70
2018-03-27T21:35:35.376Z,22.43
2018-03-27T21:38:03.623Z,23.53
2018-03-27T21:40:31.809Z,24.00
2018-03-27T21:43:00.813Z,24.17
2018-03-27T21:45:29.817Z,25.87
2018-03-27T21:47:58.020Z,24.30
2018-03-27T21:50:26.358Z,23.60
2018-03-27T21:52:55.372Z,24.90
2018-03-27T21:55:24.586Z,23.97
2018-03-27T21:57:53.766Z,25.53
2018-03-27T22:00:21.993Z,23.90
2018-03-27T22:02:50.208Z,22.77
2018-03-27T22:05:19.772Z,25.37
2018-03-27T22:07:48.052Z,24.87
2018-03-27T22:10:16.391Z,23.90
2018-03-27T22:12:44.680Z,24.00
2018-03-27T22:15:12.886Z,24.30
2018-03-27T22:17:41.077Z,26.63
2018-03-27T22:20:10.049Z,23.63
2018-03-27T22:22:38.275Z,25.70
2018-03-27T22:25:06.469Z,25.57
2018-03-27T22:27:34.716Z,26.90
2018-03-27T22:30:02.903Z,25.03
2018-03-27T22:32:31.112Z,25.83
2018-03-27T22:34:59.542Z,26.70
2018-03-27T22:37:28.532Z,25.67
2018-03-27T22:39:57.492Z,27.40
2018-03-27T22:42:25.729Z,26.50
2018-03-27T22:44:53.926Z,27.07
2018-03-27T22:47:22.139Z,27.53
2018-03-27T22:49:51.207Z,29.07
2018-03-27T22:52:19.417Z,27.73
2018-03-27T22:54:48.991Z,28.83
2018-03-27T22:57:17.258Z,29.10
2018-03-27T22:59:46.381Z,30.13
2018-03-27T23:02:14.620Z,28.80
2018-03-27T23:04:42.813Z,27.57
2018-03-27T23:07:11.055Z,26.97
2018-03-27T23:09:39.705Z,28.43
2018-03-27T23:12:08.716Z,28.73
2018-03-27T23:14:36.957Z,29.27
2018-03-27T23:17:05.229Z,29.20
2018-03-27T23:19:33.541Z,31.10
2018-03-27T23:22:01.750Z,28.43
2018-03-27T23:24:30.141Z,29.60
2018-03-27T23:26:58.826Z,31.23
2018-03-27T23:29:27.042Z,31.13
2018-03-27T23:31:55.997Z,32.67
2018-03-27T23:34:24.252Z,29.63
2018-03-27T23:36:52.501Z,30.23
2018-03-27T23:39:21.457Z,33.30
2018-03-27T23:41:49.791Z,32.70
2018-03-27T23:44:17.979Z,29.83
2018-03-27T23:46:46.323Z,32.43
2018-03-27T23:49:14.773Z,31.03
2018-03-27T23:51:42.993Z,33.40
2018-03-27T23:54:11.201Z,33.70
2018-03-27T23:56:39.502Z,33.10
2018-03-27T23:59:08.561Z,35.50
